This is the latest recevied weather packets stored in our database for station/object GW7110. If no packets are shown the sender has not sent any weather packets the latest 1 day(s).
| Time | Temp. | Humidity | Pressure | Rain* | Wind** | Luminosity | Snow |
|---|---|---|---|---|---|---|---|
| 1778005502 | 25° C | 43% | 29.9 hPa | 0 mm | 0.45 m/s, 216° | 907 W/m² | - |
| 1778005201 | 24.44° C | 44% | 29.9 hPa | 0 mm | 0.45 m/s, 250° | 959 W/m² | - |
| 1778004902 | 25° C | 43% | 29.9 hPa | 0 mm | 0.89 m/s, 267° | 485 W/m² | - |
| 1778004602 | 25° C | 43% | 30 hPa | 0 mm | 0.45 m/s, 203° | 528 W/m² | - |
| 1778004302 | 24.44° C | 45% | 30 hPa | 0 mm | 0.45 m/s, 239° | 920 W/m² | - |
| 1778004002 | 24.44° C | 41% | 29.9 hPa | 0 mm | 0.89 m/s, 198° | 756 W/m² | - |
| 1778003701 | 24.44° C | 43% | 30 hPa | 0 mm | 0 m/s | 318 W/m² | - |
| 1778003402 | 25° C | 42% | 30 hPa | 0 mm | 0.45 m/s, 186° | 661 W/m² | - |
| 1778003106 | 25° C | 43% | 30 hPa | 0 mm | 0.45 m/s, 259° | 773 W/m² | - |
| 1778002802 | 25.56° C | 42% | 30 hPa | 0 mm | 0.45 m/s, 196° | 828 W/m² | - |
| 1778002502 | 25° C | 42% | 30 hPa | 0 mm | 0.45 m/s, 198° | 1078 W/m² | - |
| 1778002202 | 24.44° C | 40% | 30 hPa | 0 mm | 0.89 m/s, 185° | 894 W/m² | - |
| 1778001902 | 24.44° C | 41% | 30 hPa | 0 mm | 0.45 m/s, 185° | 815 W/m² | - |
| 1778001602 | 24.44° C | 44% | 30 hPa | 0 mm | 0 m/s | 564 W/m² | - |
| 1778001304 | 24.44° C | 47% | 30 hPa | 0 mm | 0.89 m/s, 248° | 782 W/m² | - |
| 1778001002 | 23.89° C | 47% | 30 hPa | 0 mm | 0 m/s | 617 W/m² | - |
| 1778000709 | 23.89° C | 48% | 30 hPa | 0 mm | 0.89 m/s, 247° | 399 W/m² | - |
| 1778000402 | 23.89° C | 48% | 30 hPa | 0 mm | 0.89 m/s, 231° | 219 W/m² | - |
| 1778000103 | 23.89° C | 49% | 30 hPa | 0 mm | 0 m/s | 189 W/m² | - |
| 1777999802 | 23.89° C | 50% | 30 hPa | 0 mm | 0 m/s | 256 W/m² | - |
| 1777999502 | 23.89° C | 50% | 30 hPa | 0 mm | 0.45 m/s, 256° | 174 W/m² | - |
| 1777999202 | 23.33° C | 50% | 30 hPa | 0 mm | 0.45 m/s, 188° | 151 W/m² | - |
| 1777998903 | 23.33° C | 51% | 30 hPa | 0 mm | 0.89 m/s, 249° | 146 W/m² | - |
| 1777998602 | 23.33° C | 53% | 30 hPa | 0 mm | 0.45 m/s, 226° | 109 W/m² | - |
| 1777998301 | 23.33° C | 53% | 30 hPa | 0 mm | 0 m/s | 101 W/m² | - |
* Rain latest hour (hover to see other rain measurements)
** Current wind speed in m/s (hover to see current wind gust speed)